Terminal Aerodrome Forecast
Issued by NWS

Home | Current Version | Previous Version | Text Only | Print | Product List | Glossary On
Versions: 1 2 3 4 5 6 7 8 9 10 11 12 13
999
FTUS46 KSGX 310520
TAFSNA
TAF
KSNA 310520Z 3106/0106 VRB04KT P6SM FEW012
     FM311000 VRB04KT P6SM BKN014
     FM311600 21009KT P6SM SCT015
     FM010530 22004KT P6SM BKN015=

USA.gov is the U.S. government's official web portal to all federal, state and local government web resources and services.